createdAt,value
2022-11-23T00:01:36.582Z,99646.16
2022-11-23T00:04:08.184Z,99643.02
2022-11-23T00:06:36.375Z,99639.11
2022-11-23T00:09:05.102Z,99641.52
2022-11-23T00:11:35.783Z,99644.70
2022-11-23T00:14:04.327Z,99654.19
2022-11-23T00:16:32.862Z,99654.60
2022-11-23T00:19:01.965Z,99649.44
2022-11-23T00:21:32.341Z,99655.02
2022-11-23T00:24:00.818Z,99650.39
2022-11-23T00:26:28.862Z,99647.57
2022-11-23T00:28:56.990Z,99647.02
2022-11-23T00:31:25.773Z,99643.83
2022-11-23T00:33:55.970Z,99641.40
2022-11-23T00:36:26.344Z,99640.64
2022-11-23T00:38:54.953Z,99640.05
2022-11-23T00:41:26.480Z,99641.38
2022-11-23T00:43:54.907Z,99644.31
2022-11-23T00:46:28.913Z,99644.84
2022-11-23T00:48:58.556Z,99639.57
2022-11-23T00:51:32.542Z,99638.61
2022-11-23T00:54:02.611Z,99632.42
2022-11-23T00:56:36.855Z,99627.23
2022-11-23T00:59:05.040Z,99624.70
2022-11-23T01:01:39.661Z,99626.30
2022-11-23T01:04:08.938Z,99624.81
2022-11-23T01:06:40.449Z,99622.51
2022-11-23T01:09:14.401Z,99622.10
2022-11-23T01:11:42.761Z,99622.25
2022-11-23T01:14:11.396Z,99620.55
2022-11-23T01:16:40.895Z,99621.71
2022-11-23T01:19:12.692Z,99620.76
2022-11-23T01:21:41.147Z,99621.58
2022-11-23T01:24:31.855Z,99620.80
2022-11-23T01:27:00.045Z,99618.44
2022-11-23T01:29:28.246Z,99616.36
2022-11-23T01:31:56.476Z,99616.41
2022-11-23T01:34:24.684Z,99615.89
2022-11-23T01:36:52.899Z,99618.19
2022-11-23T01:39:21.159Z,99624.00
2022-11-23T01:41:49.294Z,99621.53
2022-11-23T01:44:33.086Z,99619.54
2022-11-23T01:47:09.115Z,99617.91
2022-11-23T01:49:44.048Z,99617.77
2022-11-23T01:52:25.656Z,99624.22
2022-11-23T01:54:57.732Z,99621.88
2022-11-23T01:57:36.698Z,99624.69
2022-11-23T02:00:05.439Z,99621.08
2022-11-23T02:02:37.506Z,99618.79
2022-11-23T02:05:06.932Z,99618.63
2022-11-23T02:07:35.808Z,99616.07
2022-11-23T02:10:04.901Z,99614.50
2022-11-23T02:12:33.119Z,99616.70
2022-11-23T02:15:01.273Z,99615.52
2022-11-23T02:17:29.495Z,99619.49
2022-11-23T02:20:18.520Z,99623.28
2022-11-23T02:22:57.195Z,99623.58
2022-11-23T02:25:44.698Z,99623.80
2022-11-23T02:28:19.505Z,99623.16
2022-11-23T02:30:56.457Z,99629.04
2022-11-23T02:33:25.720Z,99631.16
2022-11-23T02:36:01.698Z,99629.30
2022-11-23T02:38:33.962Z,99634.00
2022-11-23T02:41:02.195Z,99639.11
2022-11-23T02:43:30.375Z,99645.41
2022-11-23T02:46:01.896Z,99652.92
2022-11-23T02:48:30.034Z,99656.75
2022-11-23T02:50:58.107Z,99655.95
2022-11-23T02:53:26.272Z,99653.52
2022-11-23T02:55:54.516Z,99650.83
2022-11-23T02:58:22.513Z,99648.24
2022-11-23T03:00:50.824Z,99643.58
2022-11-23T03:03:19.017Z,99641.56
2022-11-23T03:05:47.196Z,99637.29
2022-11-23T03:08:15.326Z,99633.15
2022-11-23T03:10:43.976Z,99637.14
2022-11-23T03:13:12.175Z,99644.95
2022-11-23T03:15:40.369Z,99654.08
2022-11-23T03:18:08.370Z,99657.58
2022-11-23T03:20:37.011Z,99652.57
2022-11-23T03:23:05.191Z,99652.10
2022-11-23T03:25:33.400Z,99649.59
2022-11-23T03:28:01.568Z,99654.34
2022-11-23T03:30:31.375Z,99654.73
2022-11-23T03:32:59.866Z,99654.50
2022-11-23T03:35:27.879Z,99653.80
2022-11-23T03:37:56.042Z,99651.70
2022-11-23T03:40:24.240Z,99654.02
2022-11-23T03:42:52.340Z,99653.94
2022-11-23T03:45:20.412Z,99653.70
2022-11-23T03:47:48.556Z,99651.65
2022-11-23T03:50:16.935Z,99654.34
2022-11-23T03:52:45.167Z,99651.73
2022-11-23T03:55:13.316Z,99650.13
2022-11-23T03:57:41.493Z,99648.39
2022-11-23T04:00:10.372Z,99651.09
2022-11-23T04:02:38.566Z,99652.83
2022-11-23T04:05:07.311Z,99655.06
2022-11-23T04:07:35.631Z,99661.27
2022-11-23T04:10:04.006Z,99663.75
2022-11-23T04:12:32.172Z,99660.15
2022-11-23T04:15:00.303Z,99659.30
2022-11-23T04:17:28.452Z,99662.38
2022-11-23T04:19:56.670Z,99667.27
2022-11-23T04:22:24.816Z,99660.80
2022-11-23T04:24:53.121Z,99659.20
2022-11-23T04:27:21.259Z,99660.19
2022-11-23T04:29:49.426Z,99664.21
2022-11-23T04:32:17.616Z,99671.71
2022-11-23T04:34:45.732Z,99674.04
2022-11-23T04:37:14.244Z,99668.81
2022-11-23T04:39:42.376Z,99665.34
2022-11-23T04:42:13.808Z,99659.55
2022-11-23T04:44:41.931Z,99661.95
2022-11-23T04:47:11.727Z,99661.42
2022-11-23T04:49:40.035Z,99657.60
2022-11-23T04:52:08.321Z,99657.73
2022-11-23T04:54:36.374Z,99657.20
2022-11-23T04:57:05.255Z,99664.29
2022-11-23T04:59:33.660Z,99660.43
2022-11-23T05:02:02.373Z,99655.66
2022-11-23T05:04:30.307Z,99654.29
2022-11-23T05:06:58.455Z,99655.66
2022-11-23T05:09:26.655Z,99655.95
2022-11-23T05:11:54.806Z,99655.98
2022-11-23T05:14:23.120Z,99659.48
2022-11-23T05:16:51.790Z,99659.80
2022-11-23T05:19:19.926Z,99660.63
2022-11-23T05:21:48.174Z,99655.48
2022-11-23T05:24:16.419Z,99651.75
2022-11-23T05:26:44.614Z,99651.64
2022-11-23T05:29:12.786Z,99653.09
2022-11-23T05:31:41.005Z,99655.44
2022-11-23T05:34:09.129Z,99660.69
2022-11-23T05:36:41.936Z,99661.81
2022-11-23T05:39:10.858Z,99661.83
2022-11-23T05:41:39.202Z,99659.48
2022-11-23T05:44:07.553Z,99661.25
2022-11-23T05:46:35.868Z,99660.48
2022-11-23T05:49:04.035Z,99666.52
2022-11-23T05:51:33.059Z,99666.88
2022-11-23T05:54:03.054Z,99665.17
2022-11-23T05:56:34.662Z,99663.14
2022-11-23T05:59:08.133Z,99662.98
2022-11-23T06:01:36.426Z,99667.13
2022-11-23T06:04:07.095Z,99669.77
2022-11-23T06:06:35.130Z,99673.53
2022-11-23T06:09:03.525Z,99674.66
2022-11-23T06:11:32.676Z,99676.30
2022-11-23T06:14:01.219Z,99677.00
2022-11-23T06:16:38.634Z,99678.60
2022-11-23T06:19:11.256Z,99677.65
2022-11-23T06:21:39.629Z,99675.64
2022-11-23T06:24:08.035Z,99675.79
2022-11-23T06:26:36.225Z,99677.84
2022-11-23T06:29:04.395Z,99676.16
2022-11-23T06:31:32.536Z,99679.94
2022-11-23T06:34:00.779Z,99682.73
2022-11-23T06:36:28.843Z,99682.86
2022-11-23T06:38:57.250Z,99682.61
2022-11-23T06:41:30.927Z,99687.02
2022-11-23T06:44:00.666Z,99691.30
2022-11-23T06:46:28.761Z,99693.83
2022-11-23T06:48:56.989Z,99688.67
2022-11-23T06:51:25.318Z,99687.62
2022-11-23T06:53:54.075Z,99690.80
2022-11-23T06:56:22.276Z,99692.10
2022-11-23T06:58:51.157Z,99693.63
2022-11-23T07:01:19.581Z,99692.76
2022-11-23T07:03:47.808Z,99693.74
2022-11-23T07:06:15.890Z,99705.48
2022-11-23T07:08:44.312Z,99710.23
2022-11-23T07:11:12.732Z,99709.94
2022-11-23T07:13:40.779Z,99715.17
2022-11-23T07:16:09.021Z,99715.84
2022-11-23T07:18:37.183Z,99719.69
2022-11-23T07:21:05.386Z,99721.08
2022-11-23T07:23:33.542Z,99722.27
2022-11-23T07:26:03.113Z,99723.55
2022-11-23T07:28:31.343Z,99719.13
2022-11-23T07:30:59.751Z,99722.56
2022-11-23T07:33:27.935Z,99720.59
2022-11-23T07:35:56.131Z,99716.22
2022-11-23T07:38:27.835Z,99713.92
2022-11-23T07:40:59.136Z,99708.61
2022-11-23T07:43:27.516Z,99716.36
2022-11-23T07:45:57.425Z,99718.97
2022-11-23T07:48:25.735Z,99713.88
2022-11-23T07:50:54.933Z,99713.53
2022-11-23T07:53:23.850Z,99716.99
2022-11-23T07:55:58.015Z,99721.05
2022-11-23T07:58:26.311Z,99721.67
2022-11-23T08:00:54.596Z,99724.20
2022-11-23T08:03:30.582Z,99727.44
2022-11-23T08:05:59.616Z,99720.61
2022-11-23T08:08:27.790Z,99719.84
2022-11-23T08:10:55.999Z,99722.27
2022-11-23T08:13:24.202Z,99729.36
2022-11-23T08:15:55.328Z,99731.55
2022-11-23T08:18:24.565Z,99727.52
2022-11-23T08:20:53.796Z,99734.48
2022-11-23T08:23:22.150Z,99739.87
2022-11-23T08:25:50.598Z,99734.57
2022-11-23T08:28:19.214Z,99736.95
2022-11-23T08:30:48.040Z,99739.52
2022-11-23T08:33:17.040Z,99734.90
2022-11-23T08:35:45.629Z,99736.83
2022-11-23T08:38:14.085Z,99732.83
2022-11-23T08:40:42.818Z,99734.41
2022-11-23T08:43:11.482Z,99734.06
2022-11-23T08:45:39.665Z,99731.46
2022-11-23T08:48:08.010Z,99731.68
2022-11-23T08:50:59.814Z,99734.61
2022-11-23T08:53:31.195Z,99739.89
2022-11-23T08:56:19.018Z,99733.87
2022-11-23T08:59:02.954Z,99729.77
2022-11-23T09:01:31.269Z,99734.64
2022-11-23T09:04:20.872Z,99733.20
2022-11-23T09:06:49.709Z,99736.82
2022-11-23T09:09:36.706Z,99737.38
2022-11-23T09:12:05.807Z,99737.98
2022-11-23T09:14:34.667Z,99737.05
2022-11-23T09:17:04.277Z,99742.17
2022-11-23T09:19:32.586Z,99742.05
2022-11-23T09:22:01.384Z,99739.16
2022-11-23T09:24:29.629Z,99733.65
2022-11-23T09:26:58.605Z,99726.45
2022-11-23T09:29:26.925Z,99732.41
2022-11-23T09:31:55.197Z,99728.13
2022-11-23T09:34:23.611Z,99722.95
2022-11-23T09:36:51.965Z,99723.70
2022-11-23T09:39:20.025Z,99726.15
2022-11-23T09:42:06.269Z,99727.80
2022-11-23T09:45:02.491Z,99728.09
2022-11-23T09:47:49.016Z,99728.46
2022-11-23T09:50:34.642Z,99723.99
2022-11-23T09:53:13.279Z,99720.49
2022-11-23T09:55:50.787Z,99720.00
2022-11-23T09:58:29.163Z,99716.85
2022-11-23T10:01:15.320Z,99708.98
2022-11-23T10:03:49.156Z,99704.80
2022-11-23T10:06:27.636Z,99702.92
2022-11-23T10:09:19.777Z,99699.19
2022-11-23T10:12:02.863Z,99695.30
2022-11-23T10:15:03.530Z,99694.35
2022-11-23T10:17:44.161Z,99706.29
2022-11-23T10:20:49.667Z,99708.72
2022-11-23T10:23:46.572Z,99715.50
2022-11-23T10:26:18.050Z,99716.95
2022-11-23T10:28:48.025Z,99718.06
2022-11-23T10:31:19.791Z,99720.96
2022-11-23T10:34:11.368Z,99716.72
2022-11-23T10:36:41.653Z,99714.17
2022-11-23T10:39:28.371Z,99711.02
2022-11-23T10:42:03.343Z,99710.71
2022-11-23T10:44:37.974Z,99704.87
2022-11-23T10:47:06.274Z,99703.66
2022-11-23T10:49:36.030Z,99700.02
2022-11-23T10:52:27.241Z,99697.84
2022-11-23T10:54:59.376Z,99689.69
2022-11-23T10:57:27.698Z,99688.83
2022-11-23T11:00:14.919Z,99688.20
2022-11-23T11:02:44.339Z,99682.25
2022-11-23T11:08:55.579Z,99670.40
2022-11-23T11:11:38.996Z,99674.59
2022-11-23T11:14:19.250Z,99669.80
2022-11-23T11:16:48.998Z,99665.39
2022-11-23T11:19:36.187Z,99667.83
2022-11-23T11:22:36.741Z,99682.89
2022-11-23T11:25:07.520Z,99678.73
2022-11-23T11:27:35.680Z,99680.55
2022-11-23T11:30:08.249Z,99678.88
2022-11-23T11:32:41.592Z,99675.20
2022-11-23T11:35:47.407Z,99668.35
2022-11-23T11:38:22.831Z,99671.70
2022-11-23T11:40:52.958Z,99665.60
2022-11-23T11:43:39.469Z,99663.56
2022-11-23T11:46:31.820Z,99660.83
2022-11-23T11:49:11.435Z,99652.56
2022-11-23T11:51:55.720Z,99656.52
2022-11-23T11:54:40.375Z,99664.05
2022-11-23T11:57:35.356Z,99669.52
2022-11-23T12:00:08.013Z,99674.75
2022-11-23T12:02:49.202Z,99671.27
2022-11-23T12:05:42.460Z,99661.55
2022-11-23T12:08:22.867Z,99658.62
2022-11-23T12:10:59.232Z,99667.30
2022-11-23T12:13:36.293Z,99669.64
2022-11-23T12:16:10.939Z,99676.06
2022-11-23T12:19:07.643Z,99675.23
2022-11-23T12:22:17.554Z,99677.25
2022-11-23T12:25:11.810Z,99687.30
2022-11-23T12:28:05.970Z,99681.20
2022-11-23T12:30:34.087Z,99686.54
2022-11-23T12:33:23.232Z,99686.23
2022-11-23T12:36:06.702Z,99686.77
2022-11-23T12:39:08.542Z,99682.64
2022-11-23T12:41:53.319Z,99673.01
2022-11-23T12:44:33.858Z,99671.89
2022-11-23T12:47:10.110Z,99663.36
2022-11-23T12:50:10.511Z,99659.73
2022-11-23T12:52:47.841Z,99658.77
2022-11-23T12:55:49.683Z,99661.73
2022-11-23T12:58:24.132Z,99660.16
2022-11-23T13:01:01.402Z,99655.45
2022-11-23T13:03:56.200Z,99653.54
2022-11-23T13:10:14.157Z,99663.02
2022-11-23T13:12:48.266Z,99655.09
2022-11-23T13:15:19.392Z,99654.44
2022-11-23T13:18:02.623Z,99652.89
2022-11-23T13:20:49.655Z,99648.35
2022-11-23T13:23:21.919Z,99640.48
2022-11-23T13:26:34.096Z,99637.64
2022-11-23T13:29:41.102Z,99638.84
2022-11-23T13:32:40.368Z,99646.56
2022-11-23T13:35:17.763Z,99651.61
2022-11-23T13:37:58.133Z,99663.48
2022-11-23T13:40:35.495Z,99663.84
2022-11-23T13:43:17.924Z,99656.70
2022-11-23T13:46:06.034Z,99662.30
2022-11-23T13:49:03.657Z,99662.00
2022-11-23T13:51:35.163Z,99660.80
2022-11-23T13:54:06.493Z,99659.95
2022-11-23T13:56:39.108Z,99666.06
2022-11-23T13:59:19.303Z,99661.73
2022-11-23T14:02:07.756Z,99664.61
2022-11-23T14:04:49.723Z,99664.72
2022-11-23T14:07:25.661Z,99670.88
2022-11-23T14:10:17.090Z,99674.09
2022-11-23T14:12:45.495Z,99675.56
2022-11-23T14:15:21.822Z,99679.25
2022-11-23T14:18:20.880Z,99683.17
2022-11-23T14:21:02.174Z,99684.23
2022-11-23T14:24:05.721Z,99682.71
2022-11-23T14:27:30.833Z,99677.38
2022-11-23T14:30:05.763Z,99673.95
2022-11-23T14:33:04.338Z,99670.15
2022-11-23T14:35:48.055Z,99670.86
2022-11-23T14:38:44.236Z,99669.98
2022-11-23T14:41:28.596Z,99668.48
2022-11-23T14:44:00.374Z,99676.93
2022-11-23T14:46:28.603Z,99683.67
2022-11-23T14:49:12.443Z,99687.23
2022-11-23T14:51:45.239Z,99686.51
2022-11-23T14:54:16.810Z,99690.53
2022-11-23T14:56:47.694Z,99695.84
2022-11-23T14:59:22.475Z,99695.59
2022-11-23T15:01:54.802Z,99700.22
2022-11-23T15:04:34.591Z,99704.25
2022-11-23T15:07:22.322Z,99710.06
2022-11-23T15:10:38.188Z,99714.61
2022-11-23T15:13:24.848Z,99717.43
2022-11-23T15:15:55.613Z,99717.70
2022-11-23T15:18:38.136Z,99716.58
2022-11-23T15:21:12.467Z,99719.09
2022-11-23T15:23:47.840Z,99714.79
2022-11-23T15:26:46.222Z,99709.09
2022-11-23T15:29:30.751Z,99710.20
2022-11-23T15:32:28.543Z,99707.31
2022-11-23T15:34:49.525Z,99705.15
2022-11-23T15:37:18.734Z,99701.20
2022-11-23T15:39:48.130Z,99702.80
2022-11-23T15:42:19.111Z,99704.45
2022-11-23T15:44:50.866Z,99702.48
2022-11-23T15:47:31.157Z,99702.38
2022-11-23T15:50:08.672Z,99703.08
2022-11-23T15:52:38.222Z,99702.28
2022-11-23T15:55:13.042Z,99705.16
2022-11-23T15:57:42.956Z,99705.67
2022-11-23T16:00:25.166Z,99707.88
2022-11-23T16:03:14.210Z,99710.49
2022-11-23T16:05:42.973Z,99712.52
2022-11-23T16:08:37.580Z,99708.95
2022-11-23T16:11:08.736Z,99709.76
2022-11-23T16:13:42.483Z,99708.14
2022-11-23T16:16:17.945Z,99712.98
2022-11-23T16:18:48.453Z,99717.42
2022-11-23T16:21:21.112Z,99723.04
2022-11-23T16:23:56.062Z,99727.77
2022-11-23T16:26:32.051Z,99722.52
2022-11-23T16:29:01.597Z,99718.59
2022-11-23T16:31:38.752Z,99721.96
2022-11-23T16:34:16.143Z,99716.25
2022-11-23T16:36:44.492Z,99714.02
2022-11-23T16:39:12.795Z,99715.14
2022-11-23T16:41:41.366Z,99713.02
2022-11-23T16:44:09.646Z,99712.37
2022-11-23T16:46:43.240Z,99713.30
2022-11-23T16:49:23.957Z,99709.16
2022-11-23T16:51:57.391Z,99709.89
2022-11-23T16:54:25.871Z,99713.20
2022-11-23T16:56:54.052Z,99720.98
2022-11-23T16:59:24.068Z,99725.50
2022-11-23T17:01:57.017Z,99727.20
2022-11-23T17:04:26.769Z,99726.11
2022-11-23T17:06:55.779Z,99727.16
2022-11-23T17:09:24.026Z,99726.29
2022-11-23T17:11:52.152Z,99727.56
2022-11-23T17:14:23.123Z,99725.92
2022-11-23T17:16:55.177Z,99727.73
2022-11-23T17:19:23.379Z,99730.48
2022-11-23T17:21:51.506Z,99731.70
2022-11-23T17:24:19.575Z,99723.93
2022-11-23T17:26:52.885Z,99725.60
2022-11-23T17:29:21.892Z,99723.23
2022-11-23T17:31:52.860Z,99722.90
2022-11-23T17:34:21.156Z,99725.76
2022-11-23T17:36:52.060Z,99727.85
2022-11-23T17:39:26.557Z,99721.64
2022-11-23T17:41:57.660Z,99721.98
2022-11-23T17:44:28.808Z,99718.10
2022-11-23T17:47:00.290Z,99715.62
2022-11-23T17:49:28.919Z,99712.77
2022-11-23T17:51:57.481Z,99719.89
2022-11-23T17:54:25.818Z,99720.66
2022-11-23T17:56:54.136Z,99723.58
2022-11-23T17:59:22.456Z,99720.00
2022-11-23T18:01:50.797Z,99723.39
2022-11-23T18:04:18.905Z,99721.23
2022-11-23T18:06:47.176Z,99723.84
2022-11-23T18:09:15.496Z,99721.23
2022-11-23T18:11:43.739Z,99722.89
2022-11-23T18:14:11.763Z,99726.29
2022-11-23T18:16:40.048Z,99722.84
2022-11-23T18:19:08.473Z,99721.10
2022-11-23T18:21:36.896Z,99722.73
2022-11-23T18:24:05.757Z,99721.05
2022-11-23T18:26:33.936Z,99728.85
2022-11-23T18:29:02.571Z,99731.05
2022-11-23T18:31:30.931Z,99725.02
2022-11-23T18:33:59.616Z,99723.68
2022-11-23T18:36:28.052Z,99721.23
2022-11-23T18:38:57.252Z,99719.77
2022-11-23T18:41:25.517Z,99720.05
2022-11-23T18:43:53.953Z,99718.52
2022-11-23T18:46:22.725Z,99718.02
2022-11-23T18:48:51.725Z,99718.49
2022-11-23T18:51:20.096Z,99721.14
2022-11-23T18:53:50.727Z,99716.90
2022-11-23T18:56:19.791Z,99718.50
2022-11-23T18:58:48.138Z,99717.20
2022-11-23T19:01:19.552Z,99718.17
2022-11-23T19:03:49.824Z,99714.20
2022-11-23T19:06:19.913Z,99712.77
2022-11-23T19:09:07.977Z,99706.23
2022-11-23T19:11:36.257Z,99704.60
2022-11-23T19:14:04.503Z,99703.92
2022-11-23T19:16:32.960Z,99704.33
2022-11-23T19:19:06.666Z,99699.23
2022-11-23T19:21:36.302Z,99703.30
2022-11-23T19:24:06.236Z,99704.77
2022-11-23T19:26:34.592Z,99705.40
2022-11-23T19:29:02.921Z,99712.13
2022-11-23T19:31:33.273Z,99715.48
2022-11-23T19:34:06.451Z,99717.87
2022-11-23T19:36:38.547Z,99715.55
2022-11-23T19:39:08.521Z,99715.80
2022-11-23T19:41:36.816Z,99712.70
2022-11-23T19:44:05.545Z,99717.83
2022-11-23T19:46:33.889Z,99718.02
2022-11-23T19:49:02.386Z,99716.27
2022-11-23T19:51:30.736Z,99718.52
2022-11-23T19:54:01.322Z,99710.73
2022-11-23T19:56:30.207Z,99713.18
2022-11-23T19:59:01.720Z,99711.66
2022-11-23T20:01:32.672Z,99723.09
2022-11-23T20:04:09.264Z,99726.83
2022-11-23T20:06:42.413Z,99729.67
2022-11-23T20:09:17.195Z,99723.55
2022-11-23T20:11:50.382Z,99725.42
2022-11-23T20:14:19.916Z,99724.10
2022-11-23T20:16:48.557Z,99733.15
2022-11-23T20:19:19.345Z,99737.17
2022-11-23T20:21:47.670Z,99741.70
2022-11-23T20:24:16.323Z,99729.67
2022-11-23T20:26:44.770Z,99728.54
2022-11-23T20:29:14.640Z,99731.40
2022-11-23T20:31:43.613Z,99738.01
2022-11-23T20:34:16.794Z,99741.14
2022-11-23T20:36:48.718Z,99734.91
2022-11-23T20:39:17.179Z,99731.10
2022-11-23T20:41:45.561Z,99732.38
2022-11-23T20:44:14.596Z,99731.68
2022-11-23T20:47:01.061Z,99744.37
2022-11-23T20:49:30.518Z,99748.70
2022-11-23T20:51:59.685Z,99749.89
2022-11-23T20:54:29.141Z,99752.29
2022-11-23T20:57:00.967Z,99744.95
2022-11-23T20:59:30.156Z,99737.36
2022-11-23T21:01:58.419Z,99723.89
2022-11-23T21:04:27.051Z,99718.78
2022-11-23T21:06:55.332Z,99731.39
2022-11-23T21:09:23.734Z,99740.09
2022-11-23T21:12:11.086Z,99747.81
2022-11-23T21:14:39.355Z,99760.20
2022-11-23T21:17:08.142Z,99764.73
2022-11-23T21:19:39.858Z,99754.27
2022-11-23T21:22:13.270Z,99752.54
2022-11-23T21:24:41.958Z,99741.48
2022-11-23T21:27:13.311Z,99746.63
2022-11-23T21:29:44.297Z,99751.86
2022-11-23T21:32:15.721Z,99754.76
2022-11-23T21:34:44.205Z,99754.75
2022-11-23T21:37:13.224Z,99748.55
2022-11-23T21:39:42.157Z,99749.27
2022-11-23T21:42:10.921Z,99748.65
2022-11-23T21:44:39.601Z,99743.71
2022-11-23T21:47:07.935Z,99737.55
2022-11-23T21:49:36.281Z,99740.41
2022-11-23T21:52:06.704Z,99745.32
2022-11-23T21:54:35.322Z,99751.09
2022-11-23T21:57:04.325Z,99750.05
2022-11-23T21:59:32.546Z,99756.55
2022-11-23T22:02:01.242Z,99753.71
2022-11-23T22:04:29.891Z,99749.08
2022-11-23T22:06:58.289Z,99749.55
2022-11-23T22:09:27.391Z,99749.28
2022-11-23T22:11:56.008Z,99748.51
2022-11-23T22:14:24.343Z,99754.36
2022-11-23T22:16:57.064Z,99758.10
2022-11-23T22:19:28.195Z,99757.77
2022-11-23T22:21:56.739Z,99758.02
2022-11-23T22:24:25.451Z,99757.55
2022-11-23T22:26:53.812Z,99757.63
2022-11-23T22:29:26.265Z,99755.48
2022-11-23T22:31:54.718Z,99757.55
2022-11-23T22:34:23.143Z,99759.71
2022-11-23T22:36:52.032Z,99761.95
2022-11-23T22:39:20.250Z,99760.35
2022-11-23T22:41:49.216Z,99761.23
2022-11-23T22:44:17.518Z,99760.16
2022-11-23T22:46:45.893Z,99758.45
2022-11-23T22:49:14.265Z,99756.10
2022-11-23T22:51:42.807Z,99752.04
2022-11-23T22:54:15.526Z,99750.09
2022-11-23T22:56:44.479Z,99745.20
2022-11-23T22:59:12.848Z,99751.67
2022-11-23T23:01:41.087Z,99747.52
2022-11-23T23:04:09.580Z,99749.91
2022-11-23T23:06:39.303Z,99753.61
2022-11-23T23:09:08.307Z,99751.98
2022-11-23T23:11:37.633Z,99754.92
2022-11-23T23:14:06.908Z,99747.41
2022-11-23T23:16:35.659Z,99743.15
2022-11-23T23:19:04.438Z,99742.40
2022-11-23T23:21:32.874Z,99744.65
2022-11-23T23:24:03.903Z,99746.43
2022-11-23T23:26:32.276Z,99746.02
2022-11-23T23:29:01.207Z,99739.85
2022-11-23T23:31:30.276Z,99744.09
2022-11-23T23:34:00.418Z,99744.24
2022-11-23T23:36:30.468Z,99746.61
2022-11-23T23:39:03.369Z,99747.48
2022-11-23T23:41:31.703Z,99739.19
2022-11-23T23:44:00.867Z,99740.92
2022-11-23T23:46:29.087Z,99752.82
2022-11-23T23:48:59.260Z,99748.25
2022-11-23T23:51:27.572Z,99746.02
2022-11-23T23:53:58.138Z,99750.61
2022-11-23T23:56:29.353Z,99749.81
2022-11-23T23:58:59.665Z,99760.83
